sensor_id;sensor_type;location;lat;lon;timestamp;pressure;altitude;pressure_sealevel;temperature
69590;BMP180;56792;50.644;17.984;2023-03-23T00:02:32;99109.40;;;10.10
69590;BMP180;56792;50.644;17.984;2023-03-23T00:05:07;99106.80;;;10.00
69590;BMP180;56792;50.644;17.984;2023-03-23T00:07:39;99101.60;;;10.00
69590;BMP180;56792;50.644;17.984;2023-03-23T00:10:16;99101.80;;;10.00
69590;BMP180;56792;50.644;17.984;2023-03-23T00:12:48;99101.00;;;9.90
69590;BMP180;56792;50.644;17.984;2023-03-23T00:15:21;99097.40;;;9.90
69590;BMP180;56792;50.644;17.984;2023-03-23T00:17:55;99101.80;;;9.90
69590;BMP180;56792;50.644;17.984;2023-03-23T00:20:33;99100.40;;;9.88
69590;BMP180;56792;50.644;17.984;2023-03-23T00:23:10;99102.40;;;9.80
69590;BMP180;56792;50.644;17.984;2023-03-23T00:25:52;99104.80;;;9.80
69590;BMP180;56792;50.644;17.984;2023-03-23T00:28:28;99100.80;;;9.80
69590;BMP180;56792;50.644;17.984;2023-03-23T00:31:02;99102.40;;;9.80
69590;BMP180;56792;50.644;17.984;2023-03-23T00:33:39;99101.40;;;9.80
69590;BMP180;56792;50.644;17.984;2023-03-23T00:36:14;99104.20;;;9.80
69590;BMP180;56792;50.644;17.984;2023-03-23T00:38:48;99102.40;;;9.78
69590;BMP180;56792;50.644;17.984;2023-03-23T00:41:20;99101.00;;;9.74
69590;BMP180;56792;50.644;17.984;2023-03-23T00:43:52;99097.60;;;9.72
69590;BMP180;56792;50.644;17.984;2023-03-23T00:46:25;99094.40;;;9.70
69590;BMP180;56792;50.644;17.984;2023-03-23T00:48:58;99087.80;;;9.70
69590;BMP180;56792;50.644;17.984;2023-03-23T00:51:31;99087.40;;;9.70
69590;BMP180;56792;50.644;17.984;2023-03-23T00:54:03;99091.20;;;9.64
69590;BMP180;56792;50.644;17.984;2023-03-23T00:56:36;99088.40;;;9.60
69590;BMP180;56792;50.644;17.984;2023-03-23T00:59:09;99081.40;;;9.60
69590;BMP180;56792;50.644;17.984;2023-03-23T01:01:42;99084.00;;;9.56
69590;BMP180;56792;50.644;17.984;2023-03-23T01:04:15;99081.40;;;9.54
69590;BMP180;56792;50.644;17.984;2023-03-23T01:06:50;99079.20;;;9.56
69590;BMP180;56792;50.644;17.984;2023-03-23T01:09:22;99075.80;;;9.58
69590;BMP180;56792;50.644;17.984;2023-03-23T01:11:56;99078.80;;;9.52
69590;BMP180;56792;50.644;17.984;2023-03-23T01:14:28;99075.80;;;9.50
69590;BMP180;56792;50.644;17.984;2023-03-23T01:17:00;99079.20;;;9.50
69590;BMP180;56792;50.644;17.984;2023-03-23T01:19:33;99084.60;;;9.50
69590;BMP180;56792;50.644;17.984;2023-03-23T01:22:05;99079.60;;;9.40
69590;BMP180;56792;50.644;17.984;2023-03-23T01:24:37;99079.20;;;9.40
69590;BMP180;56792;50.644;17.984;2023-03-23T01:27:10;99074.00;;;9.30
69590;BMP180;56792;50.644;17.984;2023-03-23T01:29:42;99074.80;;;9.30
69590;BMP180;56792;50.644;17.984;2023-03-23T01:32:14;99079.40;;;9.20
69590;BMP180;56792;50.644;17.984;2023-03-23T01:34:46;99079.80;;;9.20
69590;BMP180;56792;50.644;17.984;2023-03-23T01:37:19;99075.00;;;9.20
69590;BMP180;56792;50.644;17.984;2023-03-23T01:39:58;99073.00;;;9.18
69590;BMP180;56792;50.644;17.984;2023-03-23T01:42:36;99073.80;;;9.10
69590;BMP180;56792;50.644;17.984;2023-03-23T01:45:30;99077.40;;;9.02
69590;BMP180;56792;50.644;17.984;2023-03-23T01:48:11;99074.20;;;9.00
69590;BMP180;56792;50.644;17.984;2023-03-23T01:50:53;99079.20;;;8.92
69590;BMP180;56792;50.644;17.984;2023-03-23T01:53:31;99074.80;;;8.88
69590;BMP180;56792;50.644;17.984;2023-03-23T01:56:06;99076.20;;;8.80
69590;BMP180;56792;50.644;17.984;2023-03-23T01:58:42;99079.80;;;8.72
69590;BMP180;56792;50.644;17.984;2023-03-23T02:01:17;99080.20;;;8.70
69590;BMP180;56792;50.644;17.984;2023-03-23T02:03:50;99074.00;;;8.70
69590;BMP180;56792;50.644;17.984;2023-03-23T02:06:24;99065.60;;;8.70
69590;BMP180;56792;50.644;17.984;2023-03-23T02:09:18;99063.60;;;8.70
69590;BMP180;56792;50.644;17.984;2023-03-23T02:11:53;99066.20;;;8.60
69590;BMP180;56792;50.644;17.984;2023-03-23T02:14:28;99068.00;;;8.50
69590;BMP180;56792;50.644;17.984;2023-03-23T02:17:07;99068.60;;;8.50
69590;BMP180;56792;50.644;17.984;2023-03-23T02:20:07;99067.00;;;8.40
69590;BMP180;56792;50.644;17.984;2023-03-23T02:23:32;99069.60;;;8.40
69590;BMP180;56792;50.644;17.984;2023-03-23T02:26:22;99060.60;;;8.40
69590;BMP180;56792;50.644;17.984;2023-03-23T02:29:21;99055.40;;;8.30
69590;BMP180;56792;50.644;17.984;2023-03-23T02:32:22;99055.80;;;8.28
69590;BMP180;56792;50.644;17.984;2023-03-23T02:35:00;99051.80;;;8.20
69590;BMP180;56792;50.644;17.984;2023-03-23T02:37:43;99048.80;;;8.20
69590;BMP180;56792;50.644;17.984;2023-03-23T02:40:23;99050.00;;;8.20
69590;BMP180;56792;50.644;17.984;2023-03-23T02:42:58;99042.80;;;8.20
69590;BMP180;56792;50.644;17.984;2023-03-23T02:45:35;99040.00;;;8.22
69590;BMP180;56792;50.644;17.984;2023-03-23T02:48:10;99042.20;;;8.30
69590;BMP180;56792;50.644;17.984;2023-03-23T02:50:47;99043.40;;;8.30
69590;BMP180;56792;50.644;17.984;2023-03-23T02:53:25;99038.80;;;8.30
69590;BMP180;56792;50.644;17.984;2023-03-23T02:55:59;99034.80;;;8.22
69590;BMP180;56792;50.644;17.984;2023-03-23T02:58:34;99037.20;;;8.20
69590;BMP180;56792;50.644;17.984;2023-03-23T03:01:51;99036.40;;;8.12
69590;BMP180;56792;50.644;17.984;2023-03-23T03:04:29;99035.40;;;8.00
69590;BMP180;56792;50.644;17.984;2023-03-23T03:07:25;99036.40;;;8.00
69590;BMP180;56792;50.644;17.984;2023-03-23T03:10:04;99031.40;;;7.92
69590;BMP180;56792;50.644;17.984;2023-03-23T03:12:49;99028.60;;;7.90
69590;BMP180;56792;50.644;17.984;2023-03-23T03:15:29;99026.80;;;7.80
69590;BMP180;56792;50.644;17.984;2023-03-23T03:18:10;99027.20;;;7.70
69590;BMP180;56792;50.644;17.984;2023-03-23T03:20:48;99029.60;;;7.64
69590;BMP180;56792;50.644;17.984;2023-03-23T03:23:24;99031.40;;;7.60
69590;BMP180;56792;50.644;17.984;2023-03-23T03:25:59;99028.40;;;7.50
69590;BMP180;56792;50.644;17.984;2023-03-23T03:28:42;99027.40;;;7.38
69590;BMP180;56792;50.644;17.984;2023-03-23T03:31:21;99026.40;;;7.30
69590;BMP180;56792;50.644;17.984;2023-03-23T03:33:55;99013.20;;;7.20
69590;BMP180;56792;50.644;17.984;2023-03-23T03:36:32;99014.20;;;7.20
69590;BMP180;56792;50.644;17.984;2023-03-23T03:39:11;99013.80;;;7.10
69590;BMP180;56792;50.644;17.984;2023-03-23T03:41:47;99019.40;;;7.10
69590;BMP180;56792;50.644;17.984;2023-03-23T03:44:20;99015.40;;;7.10
69590;BMP180;56792;50.644;17.984;2023-03-23T03:46:52;99016.00;;;7.10
69590;BMP180;56792;50.644;17.984;2023-03-23T03:49:25;99018.40;;;7.02
69590;BMP180;56792;50.644;17.984;2023-03-23T03:51:58;99023.80;;;7.00
69590;BMP180;56792;50.644;17.984;2023-03-23T03:54:39;99031.20;;;7.00
69590;BMP180;56792;50.644;17.984;2023-03-23T03:57:11;99026.60;;;7.00
69590;BMP180;56792;50.644;17.984;2023-03-23T04:00:13;99028.20;;;7.00
69590;BMP180;56792;50.644;17.984;2023-03-23T04:02:48;99024.80;;;7.10
69590;BMP180;56792;50.644;17.984;2023-03-23T04:05:26;99025.60;;;7.00
69590;BMP180;56792;50.644;17.984;2023-03-23T04:08:00;99020.00;;;7.04
69590;BMP180;56792;50.644;17.984;2023-03-23T04:10:35;99018.40;;;7.00
69590;BMP180;56792;50.644;17.984;2023-03-23T04:13:07;99012.00;;;7.00
69590;BMP180;56792;50.644;17.984;2023-03-23T04:16:07;99008.60;;;7.00
69590;BMP180;56792;50.644;17.984;2023-03-23T04:18:39;99013.00;;;6.90
69590;BMP180;56792;50.644;17.984;2023-03-23T04:21:13;99017.60;;;6.90
69590;BMP180;56792;50.644;17.984;2023-03-23T04:23:48;99008.60;;;6.90
69590;BMP180;56792;50.644;17.984;2023-03-23T04:26:20;99010.60;;;6.90
69590;BMP180;56792;50.644;17.984;2023-03-23T04:28:53;99009.00;;;7.00
69590;BMP180;56792;50.644;17.984;2023-03-23T04:31:51;99005.80;;;7.00
69590;BMP180;56792;50.644;17.984;2023-03-23T04:34:37;99007.80;;;7.04
69590;BMP180;56792;50.644;17.984;2023-03-23T04:37:10;99005.80;;;7.10
69590;BMP180;56792;50.644;17.984;2023-03-23T04:39:44;99007.80;;;7.20
69590;BMP180;56792;50.644;17.984;2023-03-23T04:42:17;99007.60;;;7.20
69590;BMP180;56792;50.644;17.984;2023-03-23T04:45:13;99004.00;;;7.20
69590;BMP180;56792;50.644;17.984;2023-03-23T04:47:46;99002.80;;;7.30
69590;BMP180;56792;50.644;17.984;2023-03-23T04:50:26;99005.20;;;7.30
69590;BMP180;56792;50.644;17.984;2023-03-23T04:53:03;99006.80;;;7.40
69590;BMP180;56792;50.644;17.984;2023-03-23T04:55:37;99008.20;;;7.42
69590;BMP180;56792;50.644;17.984;2023-03-23T04:58:15;99011.20;;;7.50
69590;BMP180;56792;50.644;17.984;2023-03-23T05:00:58;99011.20;;;7.50
69590;BMP180;56792;50.644;17.984;2023-03-23T05:03:30;99011.20;;;7.60
69590;BMP180;56792;50.644;17.984;2023-03-23T05:06:06;99008.80;;;7.60
69590;BMP180;56792;50.644;17.984;2023-03-23T05:08:38;99018.60;;;7.70
69590;BMP180;56792;50.644;17.984;2023-03-23T05:11:10;99017.20;;;7.72
69590;BMP180;56792;50.644;17.984;2023-03-23T05:13:44;99015.00;;;7.80
69590;BMP180;56792;50.644;17.984;2023-03-23T05:16:17;99015.20;;;7.90
69590;BMP180;56792;50.644;17.984;2023-03-23T05:18:50;99014.40;;;7.90
69590;BMP180;56792;50.644;17.984;2023-03-23T05:21:23;99013.20;;;8.00
69590;BMP180;56792;50.644;17.984;2023-03-23T05:23:58;99017.80;;;8.08
69590;BMP180;56792;50.644;17.984;2023-03-23T05:26:31;99019.40;;;8.10
69590;BMP180;56792;50.644;17.984;2023-03-23T05:29:09;99017.00;;;8.20
69590;BMP180;56792;50.644;17.984;2023-03-23T05:31:50;99021.80;;;8.22
69590;BMP180;56792;50.644;17.984;2023-03-23T05:34:24;99017.20;;;8.30
69590;BMP180;56792;50.644;17.984;2023-03-23T05:37:02;99019.80;;;8.40
69590;BMP180;56792;50.644;17.984;2023-03-23T05:39:46;99023.80;;;8.40
69590;BMP180;56792;50.644;17.984;2023-03-23T05:42:38;99027.00;;;8.50
69590;BMP180;56792;50.644;17.984;2023-03-23T05:45:21;99027.40;;;8.56
69590;BMP180;56792;50.644;17.984;2023-03-23T05:47:54;99027.60;;;8.60
69590;BMP180;56792;50.644;17.984;2023-03-23T05:50:29;99025.20;;;8.70
69590;BMP180;56792;50.644;17.984;2023-03-23T05:53:02;99017.40;;;8.72
69590;BMP180;56792;50.644;17.984;2023-03-23T05:55:37;99017.40;;;8.80
69590;BMP180;56792;50.644;17.984;2023-03-23T05:58:23;99015.20;;;8.90
69590;BMP180;56792;50.644;17.984;2023-03-23T06:00:56;99017.40;;;9.00
69590;BMP180;56792;50.644;17.984;2023-03-23T06:03:30;99014.20;;;9.00
69590;BMP180;56792;50.644;17.984;2023-03-23T06:06:11;99009.80;;;9.10
69590;BMP180;56792;50.644;17.984;2023-03-23T06:08:52;99013.20;;;9.20
69590;BMP180;56792;50.644;17.984;2023-03-23T06:11:34;99008.60;;;9.30
69590;BMP180;56792;50.644;17.984;2023-03-23T06:14:25;99009.40;;;9.40
69590;BMP180;56792;50.644;17.984;2023-03-23T06:16:57;99012.80;;;9.50
69590;BMP180;56792;50.644;17.984;2023-03-23T06:19:29;99008.00;;;9.60
69590;BMP180;56792;50.644;17.984;2023-03-23T06:22:09;99010.20;;;9.68
69590;BMP180;56792;50.644;17.984;2023-03-23T06:24:47;99008.80;;;9.70
69590;BMP180;56792;50.644;17.984;2023-03-23T06:27:23;99007.80;;;9.80
69590;BMP180;56792;50.644;17.984;2023-03-23T06:29:56;99009.00;;;9.90
69590;BMP180;56792;50.644;17.984;2023-03-23T06:32:33;99007.00;;;10.00
69590;BMP180;56792;50.644;17.984;2023-03-23T06:35:08;99003.80;;;10.10
69590;BMP180;56792;50.644;17.984;2023-03-23T06:38:00;99009.60;;;10.20
69590;BMP180;56792;50.644;17.984;2023-03-23T06:40:41;99009.20;;;10.30
69590;BMP180;56792;50.644;17.984;2023-03-23T06:43:17;99017.60;;;10.46
69590;BMP180;56792;50.644;17.984;2023-03-23T06:46:04;99016.20;;;10.60
69590;BMP180;56792;50.644;17.984;2023-03-23T06:48:59;99019.80;;;10.70
69590;BMP180;56792;50.644;17.984;2023-03-23T06:51:42;99020.40;;;10.80
69590;BMP180;56792;50.644;17.984;2023-03-23T06:54:14;99020.80;;;10.90
69590;BMP180;56792;50.644;17.984;2023-03-23T06:56:47;99028.80;;;11.00
69590;BMP180;56792;50.644;17.984;2023-03-23T06:59:20;99024.00;;;11.10
69590;BMP180;56792;50.644;17.984;2023-03-23T07:01:52;99020.20;;;11.30
69590;BMP180;56792;50.644;17.984;2023-03-23T07:04:26;99025.20;;;11.42
69590;BMP180;56792;50.644;17.984;2023-03-23T07:07:07;99024.60;;;11.52
69590;BMP180;56792;50.644;17.984;2023-03-23T07:09:47;99019.40;;;11.70
69590;BMP180;56792;50.644;17.984;2023-03-23T07:12:22;99020.00;;;11.98
69590;BMP180;56792;50.644;17.984;2023-03-23T07:14:55;99019.80;;;12.26
69590;BMP180;56792;50.644;17.984;2023-03-23T07:17:28;99011.40;;;12.40
69590;BMP180;56792;50.644;17.984;2023-03-23T07:20:12;99016.60;;;12.74
69590;BMP180;56792;50.644;17.984;2023-03-23T07:22:46;99017.40;;;13.20
69590;BMP180;56792;50.644;17.984;2023-03-23T07:25:29;99018.80;;;13.60
69590;BMP180;56792;50.644;17.984;2023-03-23T07:28:04;99019.40;;;14.02
69590;BMP180;56792;50.644;17.984;2023-03-23T07:30:37;99015.20;;;14.40
69590;BMP180;56792;50.644;17.984;2023-03-23T07:33:12;99009.00;;;14.80
69590;BMP180;56792;50.644;17.984;2023-03-23T07:35:45;99011.00;;;15.00
69590;BMP180;56792;50.644;17.984;2023-03-23T07:38:20;99011.20;;;15.10
69590;BMP180;56792;50.644;17.984;2023-03-23T07:40:54;99006.00;;;15.20
69590;BMP180;56792;50.644;17.984;2023-03-23T07:43:27;99004.40;;;15.30
69590;BMP180;56792;50.644;17.984;2023-03-23T07:46:21;99006.40;;;15.40
69590;BMP180;56792;50.644;17.984;2023-03-23T07:49:02;99009.60;;;15.40
69590;BMP180;56792;50.644;17.984;2023-03-23T07:51:41;99011.60;;;15.40
69590;BMP180;56792;50.644;17.984;2023-03-23T07:54:15;99014.00;;;15.20
69590;BMP180;56792;50.644;17.984;2023-03-23T07:57:09;99006.20;;;15.00
69590;BMP180;56792;50.644;17.984;2023-03-23T07:59:45;99009.40;;;14.80
69590;BMP180;56792;50.644;17.984;2023-03-23T08:02:18;99006.00;;;14.70
69590;BMP180;56792;50.644;17.984;2023-03-23T08:05:10;99009.40;;;14.90
69590;BMP180;56792;50.644;17.984;2023-03-23T08:07:56;99010.60;;;15.30
69590;BMP180;56792;50.644;17.984;2023-03-23T08:10:48;99013.20;;;15.70
69590;BMP180;56792;50.644;17.984;2023-03-23T08:13:29;99009.00;;;16.00
69590;BMP180;56792;50.644;17.984;2023-03-23T08:16:19;99006.80;;;16.34
69590;BMP180;56792;50.644;17.984;2023-03-23T08:19:10;99009.20;;;16.74
69590;BMP180;56792;50.644;17.984;2023-03-23T08:22:11;99004.20;;;16.98
69590;BMP180;56792;50.644;17.984;2023-03-23T08:25:10;99006.00;;;17.20
69590;BMP180;56792;50.644;17.984;2023-03-23T08:28:03;98998.80;;;17.44
69590;BMP180;56792;50.644;17.984;2023-03-23T08:31:10;98995.40;;;17.50
69590;BMP180;56792;50.644;17.984;2023-03-23T08:34:03;98993.60;;;17.80
69590;BMP180;56792;50.644;17.984;2023-03-23T08:36:54;98998.00;;;18.00
69590;BMP180;56792;50.644;17.984;2023-03-23T08:39:57;99010.40;;;18.18
69590;BMP180;56792;50.644;17.984;2023-03-23T08:42:43;99007.60;;;18.40
69590;BMP180;56792;50.644;17.984;2023-03-23T08:45:38;99011.80;;;18.70
69590;BMP180;56792;50.644;17.984;2023-03-23T08:48:50;99007.80;;;18.86
69590;BMP180;56792;50.644;17.984;2023-03-23T08:51:42;99016.80;;;19.20
69590;BMP180;56792;50.644;17.984;2023-03-23T08:54:37;99015.60;;;19.10
69590;BMP180;56792;50.644;17.984;2023-03-23T08:57:47;99017.80;;;19.50
69590;BMP180;56792;50.644;17.984;2023-03-23T09:00:41;99013.60;;;19.50
69590;BMP180;56792;50.644;17.984;2023-03-23T09:03:18;99011.00;;;19.60
69590;BMP180;56792;50.644;17.984;2023-03-23T09:06:17;99013.00;;;19.80
69590;BMP180;56792;50.644;17.984;2023-03-23T09:08:52;99015.00;;;19.90
69590;BMP180;56792;50.644;17.984;2023-03-23T09:11:26;99012.00;;;19.80
69590;BMP180;56792;50.644;17.984;2023-03-23T09:13:58;99018.80;;;20.00
69590;BMP180;56792;50.644;17.984;2023-03-23T09:16:30;99012.00;;;19.90
69590;BMP180;56792;50.644;17.984;2023-03-23T09:19:04;99004.40;;;19.70
69590;BMP180;56792;50.644;17.984;2023-03-23T09:21:37;99005.20;;;19.50
69590;BMP180;56792;50.644;17.984;2023-03-23T09:24:11;99006.40;;;19.20
69590;BMP180;56792;50.644;17.984;2023-03-23T09:26:43;99008.20;;;19.00
69590;BMP180;56792;50.644;17.984;2023-03-23T09:29:16;99002.00;;;18.80
69590;BMP180;56792;50.644;17.984;2023-03-23T09:31:49;99004.00;;;18.52
69590;BMP180;56792;50.644;17.984;2023-03-23T09:34:21;98998.80;;;18.40
69590;BMP180;56792;50.644;17.984;2023-03-23T09:36:54;98993.80;;;18.40
69590;BMP180;56792;50.644;17.984;2023-03-23T09:39:26;98998.80;;;18.40
69590;BMP180;56792;50.644;17.984;2023-03-23T09:42:22;98999.20;;;18.30
69590;BMP180;56792;50.644;17.984;2023-03-23T09:45:12;99006.80;;;18.30
69590;BMP180;56792;50.644;17.984;2023-03-23T09:51:03;99009.20;;;18.00
69590;BMP180;56792;50.644;17.984;2023-03-23T09:53:42;99014.00;;;17.80
69590;BMP180;56792;50.644;17.984;2023-03-23T09:56:17;99012.00;;;17.70
69590;BMP180;56792;50.644;17.984;2023-03-23T09:59:00;99007.00;;;17.60
69590;BMP180;56792;50.644;17.984;2023-03-23T10:01:40;99019.00;;;17.50
69590;BMP180;56792;50.644;17.984;2023-03-23T10:04:27;99016.60;;;17.42
69590;BMP180;56792;50.644;17.984;2023-03-23T10:07:10;99013.40;;;17.40
69590;BMP180;56792;50.644;17.984;2023-03-23T10:09:47;99011.80;;;17.40
69590;BMP180;56792;50.644;17.984;2023-03-23T10:12:32;99019.40;;;17.44
69590;BMP180;56792;50.644;17.984;2023-03-23T10:15:19;99016.80;;;17.50
69590;BMP180;56792;50.644;17.984;2023-03-23T10:17:59;99007.60;;;17.60
69590;BMP180;56792;50.644;17.984;2023-03-23T10:20:50;99004.80;;;17.60
69590;BMP180;56792;50.644;17.984;2023-03-23T10:23:53;99011.40;;;17.70
69590;BMP180;56792;50.644;17.984;2023-03-23T10:26:42;99005.20;;;19.22
69590;BMP180;56792;50.644;17.984;2023-03-23T10:29:23;99001.40;;;19.54
69590;BMP180;56792;50.644;17.984;2023-03-23T10:32:02;98999.60;;;19.10
69590;BMP180;56792;50.644;17.984;2023-03-23T10:34:47;98999.40;;;18.90
69590;BMP180;56792;50.644;17.984;2023-03-23T10:37:24;98995.80;;;18.80
69590;BMP180;56792;50.644;17.984;2023-03-23T10:40:01;98999.40;;;18.80
69590;BMP180;56792;50.644;17.984;2023-03-23T10:42:36;99006.60;;;18.80
69590;BMP180;56792;50.644;17.984;2023-03-23T10:45:19;99000.40;;;19.04
69590;BMP180;56792;50.644;17.984;2023-03-23T10:47:57;99004.40;;;19.30
69590;BMP180;56792;50.644;17.984;2023-03-23T10:50:34;99011.00;;;19.30
69590;BMP180;56792;50.644;17.984;2023-03-23T10:53:18;99016.60;;;19.00
69590;BMP180;56792;50.644;17.984;2023-03-23T10:55:52;99016.60;;;18.80
69590;BMP180;56792;50.644;17.984;2023-03-23T10:58:30;99010.40;;;18.80
69590;BMP180;56792;50.644;17.984;2023-03-23T11:01:09;99013.00;;;19.00
69590;BMP180;56792;50.644;17.984;2023-03-23T11:03:48;99017.40;;;19.28
69590;BMP180;56792;50.644;17.984;2023-03-23T11:06:29;99017.80;;;19.30
69590;BMP180;56792;50.644;17.984;2023-03-23T11:09:12;99020.60;;;19.20
69590;BMP180;56792;50.644;17.984;2023-03-23T11:11:50;99001.80;;;19.50
69590;BMP180;56792;50.644;17.984;2023-03-23T11:14:29;99010.80;;;19.86
69590;BMP180;56792;50.644;17.984;2023-03-23T11:17:18;98996.40;;;20.02
69590;BMP180;56792;50.644;17.984;2023-03-23T11:19:51;99009.80;;;20.22
69590;BMP180;56792;50.644;17.984;2023-03-23T11:22:31;99011.60;;;20.30
69590;BMP180;56792;50.644;17.984;2023-03-23T11:25:09;99017.60;;;20.32
69590;BMP180;56792;50.644;17.984;2023-03-23T11:27:45;99013.60;;;20.10
69590;BMP180;56792;50.644;17.984;2023-03-23T11:30:26;99016.00;;;20.10
69590;BMP180;56792;50.644;17.984;2023-03-23T11:33:03;99010.20;;;20.10
69590;BMP180;56792;50.644;17.984;2023-03-23T11:35:36;99013.20;;;19.90
69590;BMP180;56792;50.644;17.984;2023-03-23T11:38:18;99005.00;;;19.70
69590;BMP180;56792;50.644;17.984;2023-03-23T11:40:53;99013.40;;;19.50
69590;BMP180;56792;50.644;17.984;2023-03-23T11:43:26;99010.00;;;19.40
69590;BMP180;56792;50.644;17.984;2023-03-23T11:46:09;99012.00;;;19.30
69590;BMP180;56792;50.644;17.984;2023-03-23T11:48:52;99012.20;;;19.20
69590;BMP180;56792;50.644;17.984;2023-03-23T11:51:33;99010.80;;;19.00
69590;BMP180;56792;50.644;17.984;2023-03-23T11:54:17;99007.20;;;18.90
69590;BMP180;56792;50.644;17.984;2023-03-23T11:56:51;99010.60;;;18.80
69590;BMP180;56792;50.644;17.984;2023-03-23T11:59:33;99011.20;;;18.70
69590;BMP180;56792;50.644;17.984;2023-03-23T12:05:51;99014.00;;;18.52
69590;BMP180;56792;50.644;17.984;2023-03-23T12:08:46;99010.00;;;18.50
69590;BMP180;56792;50.644;17.984;2023-03-23T12:11:32;99009.60;;;18.50
69590;BMP180;56792;50.644;17.984;2023-03-23T12:14:18;99011.20;;;18.40
69590;BMP180;56792;50.644;17.984;2023-03-23T12:17:23;99006.00;;;18.32
69590;BMP180;56792;50.644;17.984;2023-03-23T12:20:16;99005.80;;;18.30
69590;BMP180;56792;50.644;17.984;2023-03-23T12:23:15;98993.40;;;18.34
69590;BMP180;56792;50.644;17.984;2023-03-23T12:29:24;99001.60;;;18.70
69590;BMP180;56792;50.644;17.984;2023-03-23T12:35:25;99000.60;;;18.70
69590;BMP180;56792;50.644;17.984;2023-03-23T12:38:15;99001.60;;;18.70
69590;BMP180;56792;50.644;17.984;2023-03-23T12:41:16;99007.20;;;18.70
69590;BMP180;56792;50.644;17.984;2023-03-23T12:43:59;99008.40;;;18.70
69590;BMP180;56792;50.644;17.984;2023-03-23T12:47:01;99003.00;;;18.60
69590;BMP180;56792;50.644;17.984;2023-03-23T12:49:41;99005.00;;;18.60
69590;BMP180;56792;50.644;17.984;2023-03-23T12:52:22;99009.80;;;18.60
69590;BMP180;56792;50.644;17.984;2023-03-23T12:55:01;99012.80;;;18.50
69590;BMP180;56792;50.644;17.984;2023-03-23T12:57:43;99015.80;;;18.40
69590;BMP180;56792;50.644;17.984;2023-03-23T13:00:23;99006.60;;;18.40
69590;BMP180;56792;50.644;17.984;2023-03-23T13:03:09;99014.80;;;18.34
69590;BMP180;56792;50.644;17.984;2023-03-23T13:05:51;99007.20;;;18.30
69590;BMP180;56792;50.644;17.984;2023-03-23T13:08:31;99013.80;;;18.30
69590;BMP180;56792;50.644;17.984;2023-03-23T13:11:14;99004.60;;;18.30
69590;BMP180;56792;50.644;17.984;2023-03-23T13:13:54;99004.60;;;18.24
69590;BMP180;56792;50.644;17.984;2023-03-23T13:16:41;99006.60;;;18.22
69590;BMP180;56792;50.644;17.984;2023-03-23T13:19:25;99000.00;;;18.22
69590;BMP180;56792;50.644;17.984;2023-03-23T13:22:09;99003.00;;;18.24
69590;BMP180;56792;50.644;17.984;2023-03-23T13:24:58;99006.20;;;18.20
69590;BMP180;56792;50.644;17.984;2023-03-23T13:27:33;99009.80;;;18.10
69590;BMP180;56792;50.644;17.984;2023-03-23T13:30:20;99005.40;;;18.00
69590;BMP180;56792;50.644;17.984;2023-03-23T13:33:04;99004.20;;;17.94
69590;BMP180;56792;50.644;17.984;2023-03-23T13:35:43;99003.20;;;17.90
69590;BMP180;56792;50.644;17.984;2023-03-23T13:38:23;98998.00;;;17.80
69590;BMP180;56792;50.644;17.984;2023-03-23T13:40:57;98992.60;;;17.80
69590;BMP180;56792;50.644;17.984;2023-03-23T13:43:33;98986.20;;;17.80
69590;BMP180;56792;50.644;17.984;2023-03-23T13:46:29;98986.80;;;17.70
69590;BMP180;56792;50.644;17.984;2023-03-23T13:49:22;98982.20;;;17.70
69590;BMP180;56792;50.644;17.984;2023-03-23T13:52:36;98975.80;;;17.70
69590;BMP180;56792;50.644;17.984;2023-03-23T13:55:47;98977.00;;;17.70
69590;BMP180;56792;50.644;17.984;2023-03-23T13:58:27;98983.00;;;17.70
69590;BMP180;56792;50.644;17.984;2023-03-23T14:01:19;98987.60;;;17.70
69590;BMP180;56792;50.644;17.984;2023-03-23T14:04:07;98983.40;;;17.70
69590;BMP180;56792;50.644;17.984;2023-03-23T14:06:40;98985.00;;;17.70
69590;BMP180;56792;50.644;17.984;2023-03-23T14:09:25;98985.20;;;17.70
69590;BMP180;56792;50.644;17.984;2023-03-23T14:12:02;98985.60;;;17.70
69590;BMP180;56792;50.644;17.984;2023-03-23T14:14:49;98989.20;;;17.70
69590;BMP180;56792;50.644;17.984;2023-03-23T14:17:26;98993.40;;;17.64
69590;BMP180;56792;50.644;17.984;2023-03-23T14:20:01;98990.80;;;17.60
69590;BMP180;56792;50.644;17.984;2023-03-23T14:22:42;98990.80;;;17.60
69590;BMP180;56792;50.644;17.984;2023-03-23T14:25:18;98992.60;;;17.60
69590;BMP180;56792;50.644;17.984;2023-03-23T14:27:52;98994.20;;;17.50
69590;BMP180;56792;50.644;17.984;2023-03-23T14:30:34;98997.00;;;17.50
69590;BMP180;56792;50.644;17.984;2023-03-23T14:33:10;98993.00;;;17.40
69590;BMP180;56792;50.644;17.984;2023-03-23T14:35:46;98991.80;;;17.40
69590;BMP180;56792;50.644;17.984;2023-03-23T14:38:24;98987.40;;;17.30
69590;BMP180;56792;50.644;17.984;2023-03-23T14:41:05;98984.60;;;17.30
69590;BMP180;56792;50.644;17.984;2023-03-23T14:43:39;98986.00;;;17.30
69590;BMP180;56792;50.644;17.984;2023-03-23T14:46:14;98988.40;;;17.24
69590;BMP180;56792;50.644;17.984;2023-03-23T14:48:48;98986.40;;;17.20
69590;BMP180;56792;50.644;17.984;2023-03-23T14:51:23;98985.20;;;17.20
69590;BMP180;56792;50.644;17.984;2023-03-23T14:53:57;98986.20;;;17.20
69590;BMP180;56792;50.644;17.984;2023-03-23T14:56:36;98989.60;;;17.20
69590;BMP180;56792;50.644;17.984;2023-03-23T14:59:12;98986.00;;;17.20
69590;BMP180;56792;50.644;17.984;2023-03-23T15:01:45;98983.80;;;17.20
69590;BMP180;56792;50.644;17.984;2023-03-23T15:04:21;98983.60;;;17.20
69590;BMP180;56792;50.644;17.984;2023-03-23T15:06:58;98983.40;;;17.10
69590;BMP180;56792;50.644;17.984;2023-03-23T15:09:32;98977.40;;;17.00
69590;BMP180;56792;50.644;17.984;2023-03-23T15:12:11;98983.40;;;17.00
69590;BMP180;56792;50.644;17.984;2023-03-23T15:14:53;98972.80;;;16.98
69590;BMP180;56792;50.644;17.984;2023-03-23T15:17:30;98979.00;;;16.90
69590;BMP180;56792;50.644;17.984;2023-03-23T15:20:19;98975.20;;;16.90
69590;BMP180;56792;50.644;17.984;2023-03-23T15:22:54;98974.00;;;16.90
69590;BMP180;56792;50.644;17.984;2023-03-23T15:25:34;98976.60;;;16.80
69590;BMP180;56792;50.644;17.984;2023-03-23T15:28:20;98979.80;;;16.80
69590;BMP180;56792;50.644;17.984;2023-03-23T15:30:57;98982.80;;;16.80